QFA140 YBCG-YSSY
Flight info
| Callsign | QFA140 |
|---|---|
| Flight time | N/A |
| Altitude | 36000 |
| Route | GOMOL Q16 APAGI H91 IGDAM H652 BOREE |
| Aircraft | B739/M-SDE2E3FGHIRWXY/LB1 |
Departure
| Time | 2026-05-04 03:17 |
|---|---|
| Airport | Gold Coast Airport (YBCG) |
Arrival
| Time | N/A |
|---|---|
| Airport | Sydney Kingsford Smith International Airport (YSSY) |
| Time | Latitude | Longitude | Altitude | Speed | Heading |
|---|---|---|---|---|---|
| 2026-05-04 03:08 | -28.16935 | 153.51208 | 25 ft | 0 kts | 330° |
| 2026-05-04 03:11 | -28.16919 | 153.51198 | 26 ft | 7 kts | 330° |
| 2026-05-04 03:11 | -28.16856 | 153.51157 | 28 ft | 14 kts | 330° |
| 2026-05-04 03:11 | -28.16749 | 153.51089 | 27 ft | 21 kts | 330° |
| 2026-05-04 03:11 | -28.16610 | 153.51001 | 28 ft | 23 kts | 330° |
| 2026-05-04 03:12 | -28.16504 | 153.50918 | 27 ft | 17 kts | 293° |
| 2026-05-04 03:12 | -28.16457 | 153.50802 | 29 ft | 16 kts | 323° |
| 2026-05-04 03:12 | -28.16361 | 153.50736 | 25 ft | 16 kts | 330° |
| 2026-05-04 03:12 | -28.16266 | 153.50676 | 26 ft | 15 kts | 331° |
| 2026-05-04 03:13 | -28.16175 | 153.50619 | 26 ft | 15 kts | 330° |
| 2026-05-04 03:13 | -28.16089 | 153.50563 | 26 ft | 14 kts | 331° |
| 2026-05-04 03:13 | -28.16005 | 153.50511 | 28 ft | 13 kts | 331° |
| 2026-05-04 03:13 | -28.15926 | 153.50460 | 26 ft | 13 kts | 330° |
| 2026-05-04 03:14 | -28.15849 | 153.50411 | 26 ft | 13 kts | 331° |
| 2026-05-04 03:14 | -28.15774 | 153.50364 | 26 ft | 12 kts | 330° |
| 2026-05-04 03:14 | -28.15701 | 153.50317 | 28 ft | 12 kts | 330° |
| 2026-05-04 03:14 | -28.15632 | 153.50267 | 28 ft | 12 kts | 317° |
| 2026-05-04 03:15 | -28.15607 | 153.50186 | 25 ft | 11 kts | 260° |
| 2026-05-04 03:15 | -28.15646 | 153.50113 | 28 ft | 11 kts | 219° |
| 2026-05-04 03:15 | -28.15716 | 153.50115 | 27 ft | 11 kts | 153° |
| 2026-05-04 03:15 | -28.15721 | 153.50118 | 29 ft | 0 kts | 152° |
| 2026-05-04 03:16 | -28.15752 | 153.50136 | 30 ft | 23 kts | 152° |
| 2026-05-04 03:16 | -28.16148 | 153.50387 | 25 ft | 105 kts | 150° |
| 2026-05-04 03:16 | -28.16972 | 153.50933 | 29 ft | 168 kts | 146° |
| 2026-05-04 03:16 | -28.18062 | 153.51724 | 488 ft | 191 kts | 147° |
| 2026-05-04 03:17 | -28.19171 | 153.52499 | 1584 ft | 189 kts | 149° |
| 2026-05-04 03:17 | -28.20447 | 153.53163 | 1990 ft | 221 kts | 159° |
| 2026-05-04 03:17 | -28.21985 | 153.53757 | 2439 ft | 236 kts | 160° |
| 2026-05-04 03:17 | -28.23537 | 153.54360 | 2952 ft | 240 kts | 159° |
| 2026-05-04 03:18 | -28.25184 | 153.54684 | 3465 ft | 248 kts | 184° |
| 2026-05-04 03:18 | -28.26821 | 153.54030 | 4032 ft | 251 kts | 214° |
| 2026-05-04 03:18 | -28.28048 | 153.52637 | 4591 ft | 254 kts | 233° |
| 2026-05-04 03:18 | -28.29076 | 153.51002 | 5201 ft | 256 kts | 236° |
| 2026-05-04 03:19 | -28.30081 | 153.49325 | 5772 ft | 259 kts | 236° |
| 2026-05-04 03:19 | -28.31112 | 153.47596 | 6212 ft | 271 kts | 236° |
| 2026-05-04 03:19 | -28.32200 | 153.45778 | 6676 ft | 283 kts | 236° |
| 2026-05-04 03:19 | -28.33319 | 153.43918 | 7408 ft | 285 kts | 236° |
| 2026-05-04 03:20 | -28.34440 | 153.42062 | 8214 ft | 287 kts | 236° |
| 2026-05-04 03:20 | -28.35579 | 153.40182 | 8945 ft | 290 kts | 236° |
| 2026-05-04 03:20 | -28.36729 | 153.38288 | 9694 ft | 293 kts | 236° |
| 2026-05-04 03:20 | -28.37899 | 153.36364 | 10366 ft | 298 kts | 236° |
| 2026-05-04 03:21 | -28.39119 | 153.34355 | 10589 ft | 320 kts | 237° |
| 2026-05-04 03:21 | -28.40411 | 153.32227 | 10753 ft | 341 kts | 237° |
| 2026-05-04 03:21 | -28.41800 | 153.29941 | 10937 ft | 360 kts | 237° |
| 2026-05-04 03:21 | -28.43244 | 153.27568 | 11394 ft | 367 kts | 237° |
| 2026-05-04 03:22 | -28.44699 | 153.25178 | 12221 ft | 369 kts | 236° |
| 2026-05-04 03:22 | -28.46186 | 153.22732 | 12578 ft | 379 kts | 236° |
| 2026-05-04 03:22 | -28.47693 | 153.20251 | 13119 ft | 382 kts | 236° |
| 2026-05-04 03:22 | -28.49178 | 153.17809 | 13871 ft | 378 kts | 237° |
| 2026-05-04 03:23 | -28.50669 | 153.15349 | 14528 ft | 378 kts | 237° |
| 2026-05-04 03:23 | -28.52168 | 153.12875 | 15055 ft | 381 kts | 237° |
| 2026-05-04 03:23 | -28.53682 | 153.10374 | 15572 ft | 384 kts | 238° |
| 2026-05-04 03:23 | -28.55204 | 153.07860 | 16113 ft | 386 kts | 238° |
| 2026-05-04 03:24 | -28.56729 | 153.05340 | 16656 ft | 388 kts | 238° |
| 2026-05-04 03:24 | -28.58265 | 153.02799 | 17165 ft | 390 kts | 238° |
| 2026-05-04 03:24 | -28.59804 | 153.00254 | 17638 ft | 392 kts | 238° |
| 2026-05-04 03:24 | -28.61340 | 152.97710 | 18095 ft | 395 kts | 239° |
| 2026-05-04 03:25 | -28.62711 | 152.95007 | 18537 ft | 392 kts | 252° |
| 2026-05-04 03:25 | -28.63244 | 152.91991 | 19006 ft | 387 kts | 271° |
| 2026-05-04 03:25 | -28.62933 | 152.88965 | 19482 ft | 385 kts | 287° |
| 2026-05-04 03:25 | -28.61856 | 152.86180 | 19894 ft | 387 kts | 302° |
| 2026-05-04 03:26 | -28.60086 | 152.83867 | 20299 ft | 391 kts | 319° |
| 2026-05-04 03:26 | -28.57779 | 152.82266 | 20671 ft | 398 kts | 335° |
| 2026-05-04 03:26 | -28.55054 | 152.81539 | 21042 ft | 408 kts | 353° |
| 2026-05-04 03:26 | -28.52192 | 152.81850 | 21392 ft | 421 kts | 11° |
| 2026-05-04 03:27 | -28.49484 | 152.83244 | 21688 ft | 435 kts | 30° |
| 2026-05-04 03:27 | -28.47262 | 152.85636 | 22009 ft | 450 kts | 50° |
| 2026-05-04 03:27 | -28.45863 | 152.88855 | 22305 ft | 463 kts | 72° |
| 2026-05-04 03:27 | -28.45365 | 152.92459 | 22628 ft | 470 kts | 84° |
| 2026-05-04 03:28 | -28.45222 | 152.96183 | 22927 ft | 473 kts | 86° |
| 2026-05-04 03:28 | -28.45109 | 152.99936 | 23144 ft | 477 kts | 85° |
| 2026-05-04 03:28 | -28.44884 | 153.03713 | 23400 ft | 480 kts | 82° |
| 2026-05-04 03:28 | -28.44487 | 153.07474 | 23726 ft | 479 kts | 78° |
| 2026-05-04 03:29 | -28.43841 | 153.11194 | 23973 ft | 479 kts | 71° |
| 2026-05-04 03:29 | -28.42694 | 153.14733 | 24206 ft | 476 kts | 60° |
| 2026-05-04 03:29 | -28.41056 | 153.17981 | 24483 ft | 472 kts | 51° |
| 2026-05-04 03:29 | -28.39144 | 153.20919 | 24720 ft | 471 kts | 46° |
| 2026-05-04 03:30 | -28.37029 | 153.23773 | 24956 ft | 473 kts | 44° |
| 2026-05-04 03:30 | -28.34872 | 153.26549 | 25214 ft | 474 kts | 43° |
| 2026-05-04 03:30 | -28.32934 | 153.29034 | 25407 ft | 477 kts | 43° |
| 2026-05-04 03:30 | -28.30705 | 153.31932 | 25621 ft | 480 kts | 44° |
| 2026-05-04 03:31 | -28.28523 | 153.34817 | 25868 ft | 482 kts | 44° |
| 2026-05-04 03:31 | -28.26370 | 153.37695 | 26109 ft | 484 kts | 44° |
| 2026-05-04 03:31 | -28.24191 | 153.40623 | 26318 ft | 486 kts | 44° |
| 2026-05-04 03:31 | -28.22004 | 153.43561 | 26536 ft | 488 kts | 44° |
| 2026-05-04 03:32 | -28.19801 | 153.46516 | 26717 ft | 492 kts | 44° |
| 2026-05-04 03:32 | -28.17578 | 153.49491 | 26924 ft | 493 kts | 44° |
| 2026-05-04 03:32 | -28.15463 | 153.52577 | 27104 ft | 503 kts | 55° |
| 2026-05-04 03:32 | -28.14128 | 153.56289 | 27256 ft | 516 kts | 74° |
| 2026-05-04 03:33 | -28.13779 | 153.60350 | 27470 ft | 522 kts | 92° |
| 2026-05-04 03:33 | -28.14401 | 153.64363 | 27637 ft | 525 kts | 109° |
| 2026-05-04 03:33 | -28.15984 | 153.68077 | 27771 ft | 524 kts | 127° |
| 2026-05-04 03:33 | -28.18411 | 153.71123 | 27941 ft | 517 kts | 145° |
| 2026-05-04 03:34 | -28.21439 | 153.73248 | 28100 ft | 507 kts | 163° |
| 2026-05-04 03:34 | -28.24780 | 153.74323 | 28276 ft | 494 kts | 179° |
| 2026-05-04 03:34 | -28.28120 | 153.74358 | 28444 ft | 480 kts | 195° |
| 2026-05-04 03:34 | -28.31306 | 153.73430 | 28659 ft | 466 kts | 209° |
| 2026-05-04 03:35 | -28.34151 | 153.71773 | 28871 ft | 454 kts | 221° |
| 2026-05-04 03:35 | -28.36518 | 153.69484 | 29094 ft | 442 kts | 235° |
| 2026-05-04 03:35 | -28.38095 | 153.66587 | 29345 ft | 426 kts | 255° |
| 2026-05-04 03:35 | -28.38662 | 153.63336 | 29675 ft | 416 kts | 268° |
| 2026-05-04 03:36 | -28.38715 | 153.60099 | 30045 ft | 412 kts | 273° |
| 2026-05-04 03:36 | -28.38590 | 153.56856 | 30351 ft | 411 kts | 275° |
| 2026-05-04 03:36 | -28.38401 | 153.53614 | 30699 ft | 409 kts | 275° |
| 2026-05-04 03:36 | -28.38231 | 153.50401 | 31124 ft | 405 kts | 274° |
| 2026-05-04 03:37 | -28.38129 | 153.47218 | 31534 ft | 402 kts | 272° |
| 2026-05-04 03:37 | -28.38111 | 153.44053 | 31900 ft | 400 kts | 271° |
| 2026-05-04 03:37 | -28.38184 | 153.40896 | 32249 ft | 399 kts | 269° |
| 2026-05-04 03:37 | -28.38349 | 153.37761 | 32633 ft | 396 kts | 267° |
| 2026-05-04 03:38 | -28.38605 | 153.34652 | 33025 ft | 393 kts | 265° |
| 2026-05-04 03:38 | -28.38948 | 153.31584 | 33454 ft | 390 kts | 264° |
| 2026-05-04 03:38 | -28.39376 | 153.28560 | 33874 ft | 386 kts | 262° |
| 2026-05-04 03:38 | -28.39881 | 153.25599 | 34159 ft | 385 kts | 261° |
| 2026-05-04 03:39 | -28.40501 | 153.22640 | 34395 ft | 386 kts | 257° |
| 2026-05-04 03:39 | -28.41396 | 153.19753 | 34649 ft | 389 kts | 251° |
| 2026-05-04 03:39 | -28.42614 | 153.16994 | 34939 ft | 391 kts | 245° |
| 2026-05-04 03:39 | -28.44072 | 153.14382 | 35176 ft | 394 kts | 242° |
| 2026-05-04 03:40 | -28.45712 | 153.11839 | 35323 ft | 398 kts | 239° |
| 2026-05-04 03:40 | -28.47446 | 153.09364 | 35463 ft | 401 kts | 238° |
| 2026-05-04 03:40 | -28.49231 | 153.06920 | 35612 ft | 403 kts | 237° |
| 2026-05-04 03:40 | -28.51041 | 153.04483 | 35845 ft | 402 kts | 237° |
| 2026-05-04 03:41 | -28.52822 | 153.02096 | 36084 ft | 400 kts | 237° |
| 2026-05-04 03:41 | -28.56433 | 152.97237 | 36094 ft | 403 kts | 237° |
| 2026-05-04 03:42 | -28.60041 | 152.92357 | 36095 ft | 401 kts | 238° |
| 2026-05-04 03:42 | -28.63621 | 152.87503 | 36077 ft | 399 kts | 238° |
| 2026-05-04 03:43 | -28.67159 | 152.82694 | 36086 ft | 398 kts | 238° |
| 2026-05-04 03:43 | -28.70707 | 152.77866 | 36079 ft | 397 kts | 238° |
| 2026-05-04 03:44 | -28.74252 | 152.73038 | 36091 ft | 397 kts | 238° |
| 2026-05-04 03:44 | -28.77789 | 152.68212 | 36080 ft | 397 kts | 238° |
| 2026-05-04 03:45 | -28.81338 | 152.63369 | 36098 ft | 398 kts | 238° |
| 2026-05-04 03:45 | -28.85231 | 152.58809 | 36104 ft | 411 kts | 228° |
| 2026-05-04 03:46 | -28.90156 | 152.55270 | 36115 ft | 425 kts | 218° |
| 2026-05-04 03:46 | -28.95440 | 152.52180 | 36107 ft | 427 kts | 217° |
| 2026-05-04 03:47 | -29.00720 | 152.49090 | 36098 ft | 426 kts | 218° |
| 2026-05-04 03:47 | -29.05970 | 152.45981 | 36102 ft | 425 kts | 218° |
| 2026-05-04 03:48 | -29.10329 | 152.43383 | 36104 ft | 424 kts | 218° |
| 2026-05-04 03:48 | -29.15562 | 152.40261 | 36105 ft | 423 kts | 218° |
| 2026-05-04 03:49 | -29.20791 | 152.37136 | 36105 ft | 423 kts | 218° |
| 2026-05-04 03:49 | -29.26012 | 152.34015 | 36101 ft | 422 kts | 218° |
| 2026-05-04 03:50 | -29.31175 | 152.30882 | 36232 ft | 418 kts | 219° |
| 2026-05-04 03:50 | -29.36341 | 152.27794 | 36118 ft | 422 kts | 218° |
| 2026-05-04 03:51 | -29.41561 | 152.24684 | 36100 ft | 423 kts | 219° |
| 2026-05-04 03:51 | -29.46782 | 152.21555 | 36083 ft | 423 kts | 218° |
| 2026-05-04 03:52 | -29.51992 | 152.18426 | 36098 ft | 422 kts | 219° |
| 2026-05-04 03:52 | -29.57185 | 152.15296 | 36102 ft | 422 kts | 219° |
| 2026-05-04 03:53 | -29.62357 | 152.12177 | 36106 ft | 422 kts | 219° |
| 2026-05-04 03:53 | -29.67562 | 152.09035 | 36098 ft | 422 kts | 219° |
| 2026-05-04 03:54 | -29.73183 | 152.06573 | 36099 ft | 445 kts | 205° |
| 2026-05-04 03:54 | -29.79255 | 152.05025 | 36098 ft | 447 kts | 204° |
| 2026-05-04 03:55 | -29.85313 | 152.03512 | 36102 ft | 447 kts | 205° |
| 2026-05-04 03:55 | -29.91396 | 152.01947 | 36091 ft | 447 kts | 205° |
| 2026-05-04 03:56 | -29.97429 | 152.00369 | 36089 ft | 447 kts | 205° |
| 2026-05-04 03:56 | -30.03498 | 151.98776 | 36090 ft | 446 kts | 205° |
| 2026-05-04 03:57 | -30.09564 | 151.97181 | 36099 ft | 445 kts | 205° |
| 2026-05-04 03:57 | -30.15565 | 151.95606 | 36084 ft | 445 kts | 205° |
| 2026-05-04 03:58 | -30.24640 | 151.93219 | 36090 ft | 444 kts | 205° |
| 2026-05-04 03:58 | -30.30664 | 151.91632 | 36091 ft | 444 kts | 205° |
| 2026-05-04 03:59 | -30.33610 | 151.90684 | 36082 ft | 432 kts | 213° |
| 2026-05-04 03:59 | -30.36445 | 151.89405 | 36102 ft | 429 kts | 214° |
| 2026-05-04 03:59 | -30.41876 | 151.86821 | 36093 ft | 429 kts | 214° |
| 2026-05-04 04:00 | -30.47400 | 151.84187 | 36096 ft | 429 kts | 214° |
| 2026-05-04 04:00 | -30.52957 | 151.81576 | 36092 ft | 432 kts | 214° |
| 2026-05-04 04:01 | -30.58542 | 151.78962 | 36080 ft | 433 kts | 214° |
| 2026-05-04 04:01 | -30.64147 | 151.76341 | 36083 ft | 434 kts | 214° |
| 2026-05-04 04:02 | -30.69720 | 151.73732 | 36093 ft | 435 kts | 214° |
| 2026-05-04 04:02 | -30.75338 | 151.71100 | 36081 ft | 436 kts | 214° |
| 2026-05-04 04:03 | -30.80971 | 151.68455 | 36087 ft | 436 kts | 214° |
| 2026-05-04 04:03 | -30.86600 | 151.65813 | 36082 ft | 435 kts | 214° |
| 2026-05-04 04:04 | -30.92213 | 151.63171 | 36072 ft | 434 kts | 214° |
| 2026-05-04 04:04 | -30.97810 | 151.60530 | 36075 ft | 434 kts | 214° |
| 2026-05-04 04:05 | -31.03373 | 151.57905 | 36076 ft | 434 kts | 214° |
| 2026-05-04 04:05 | -31.08972 | 151.55264 | 36076 ft | 433 kts | 214° |
| 2026-05-04 04:06 | -31.14564 | 151.52615 | 36074 ft | 434 kts | 214° |
| 2026-05-04 04:06 | -31.20141 | 151.49969 | 36078 ft | 434 kts | 214° |
| 2026-05-04 04:07 | -31.25756 | 151.47310 | 36075 ft | 435 kts | 214° |
| 2026-05-04 04:07 | -31.31367 | 151.44644 | 36074 ft | 434 kts | 214° |
| 2026-05-04 04:08 | -31.36971 | 151.41978 | 36077 ft | 435 kts | 215° |
| 2026-05-04 04:08 | -31.42618 | 151.39358 | 36079 ft | 438 kts | 213° |
| 2026-05-04 04:09 | -31.48287 | 151.36857 | 36076 ft | 439 kts | 213° |
| 2026-05-04 04:09 | -31.54020 | 151.34323 | 36081 ft | 438 kts | 213° |
| 2026-05-04 04:10 | -31.59725 | 151.31781 | 36077 ft | 438 kts | 213° |
| 2026-05-04 04:10 | -31.65395 | 151.29247 | 36069 ft | 438 kts | 213° |
| 2026-05-04 04:11 | -31.71095 | 151.26691 | 36061 ft | 438 kts | 213° |
| 2026-05-04 04:11 | -31.76783 | 151.24135 | 36062 ft | 437 kts | 213° |
| 2026-05-04 04:12 | -31.82476 | 151.21580 | 36062 ft | 435 kts | 214° |
| 2026-05-04 04:12 | -31.88131 | 151.19039 | 36068 ft | 436 kts | 214° |
| 2026-05-04 04:13 | -31.93764 | 151.16499 | 36068 ft | 436 kts | 214° |
| 2026-05-04 04:13 | -31.99447 | 151.13949 | 36068 ft | 437 kts | 213° |
| 2026-05-04 04:14 | -32.05170 | 151.11462 | 36073 ft | 440 kts | 213° |
| 2026-05-04 04:14 | -32.10909 | 151.08841 | 36002 ft | 444 kts | 213° |
| 2026-05-04 04:15 | -32.13830 | 151.07498 | 35317 ft | 455 kts | 213° |
| 2026-05-04 04:15 | -32.16798 | 151.06145 | 34599 ft | 455 kts | 213° |
| 2026-05-04 04:15 | -32.19763 | 151.04807 | 33810 ft | 456 kts | 212° |
| 2026-05-04 04:15 | -32.22733 | 151.03474 | 33021 ft | 457 kts | 212° |
| 2026-05-04 04:16 | -32.25652 | 151.02166 | 32476 ft | 452 kts | 212° |
| 2026-05-04 04:16 | -32.28577 | 151.00854 | 31876 ft | 447 kts | 212° |
| 2026-05-04 04:16 | -32.31469 | 150.99548 | 31307 ft | 443 kts | 211° |
| 2026-05-04 04:16 | -32.34327 | 150.98257 | 30733 ft | 440 kts | 211° |
| 2026-05-04 04:17 | -32.37181 | 150.96967 | 30176 ft | 436 kts | 211° |
| 2026-05-04 04:17 | -32.40014 | 150.95683 | 29602 ft | 434 kts | 211° |
| 2026-05-04 04:17 | -32.42829 | 150.94409 | 29034 ft | 432 kts | 210° |
| 2026-05-04 04:17 | -32.45630 | 150.93142 | 28481 ft | 429 kts | 209° |
| 2026-05-04 04:18 | -32.48518 | 150.92132 | 27900 ft | 438 kts | 199° |
| 2026-05-04 04:18 | -32.51571 | 150.91722 | 27348 ft | 446 kts | 188° |
| 2026-05-04 04:18 | -32.54672 | 150.91915 | 26894 ft | 450 kts | 176° |
| 2026-05-04 04:18 | -32.57738 | 150.92617 | 26398 ft | 447 kts | 176° |
| 2026-05-04 04:19 | -32.60802 | 150.93223 | 25850 ft | 444 kts | 177° |
| 2026-05-04 04:19 | -32.63842 | 150.93760 | 25319 ft | 440 kts | 177° |
| 2026-05-04 04:19 | -32.66871 | 150.94279 | 24799 ft | 438 kts | 177° |
| 2026-05-04 04:19 | -32.69878 | 150.94799 | 24271 ft | 435 kts | 176° |
| 2026-05-04 04:20 | -32.72862 | 150.95328 | 23749 ft | 432 kts | 176° |
| 2026-05-04 04:20 | -32.75831 | 150.95862 | 23222 ft | 429 kts | 176° |
| 2026-05-04 04:20 | -32.78741 | 150.96388 | 22711 ft | 426 kts | 176° |
| 2026-05-04 04:20 | -32.81664 | 150.96914 | 22327 ft | 420 kts | 176° |
| 2026-05-04 04:21 | -32.84547 | 150.97427 | 21829 ft | 416 kts | 176° |
| 2026-05-04 04:21 | -32.87412 | 150.97935 | 21329 ft | 414 kts | 176° |
| 2026-05-04 04:21 | -32.90219 | 150.98433 | 20840 ft | 411 kts | 175° |
| 2026-05-04 04:21 | -32.93039 | 150.98932 | 20339 ft | 408 kts | 175° |
| 2026-05-04 04:22 | -32.95851 | 150.99431 | 19833 ft | 406 kts | 175° |
| 2026-05-04 04:22 | -32.98634 | 150.99926 | 19323 ft | 403 kts | 175° |
| 2026-05-04 04:22 | -33.00470 | 151.00252 | 18998 ft | 401 kts | 175° |
| 2026-05-04 04:22 | -33.03050 | 151.00712 | 18531 ft | 399 kts | 175° |
| 2026-05-04 04:23 | -33.05772 | 151.01198 | 18006 ft | 395 kts | 175° |
| 2026-05-04 04:23 | -33.08484 | 151.01681 | 17236 ft | 393 kts | 175° |
| 2026-05-04 04:23 | -33.11177 | 151.02161 | 16496 ft | 389 kts | 175° |
| 2026-05-04 04:23 | -33.13839 | 151.02637 | 15749 ft | 385 kts | 174° |
| 2026-05-04 04:24 | -33.16481 | 151.03109 | 14997 ft | 381 kts | 174° |
| 2026-05-04 04:24 | -33.19087 | 151.03575 | 14319 ft | 375 kts | 174° |
| 2026-05-04 04:24 | -33.21616 | 151.04029 | 13704 ft | 369 kts | 174° |
| 2026-05-04 04:24 | -33.24133 | 151.04481 | 13083 ft | 362 kts | 174° |
| 2026-05-04 04:25 | -33.26608 | 151.04946 | 12451 ft | 357 kts | 173° |
| 2026-05-04 04:25 | -33.29044 | 151.05416 | 11823 ft | 351 kts | 173° |
| 2026-05-04 04:25 | -33.31438 | 151.05877 | 11197 ft | 347 kts | 173° |
| 2026-05-04 04:25 | -33.33805 | 151.06332 | 10585 ft | 343 kts | 173° |
| 2026-05-04 04:26 | -33.36156 | 151.06782 | 9951 ft | 340 kts | 172° |
| 2026-05-04 04:26 | -33.38485 | 151.07228 | 9329 ft | 338 kts | 172° |
| 2026-05-04 04:26 | -33.40806 | 151.07673 | 8703 ft | 336 kts | 172° |
| 2026-05-04 04:26 | -33.43077 | 151.08110 | 8086 ft | 334 kts | 172° |
| 2026-05-04 04:27 | -33.45370 | 151.08549 | 7466 ft | 332 kts | 172° |
| 2026-05-04 04:27 | -33.47646 | 151.08987 | 6842 ft | 330 kts | 172° |
| 2026-05-04 04:27 | -33.49911 | 151.09423 | 6291 ft | 328 kts | 172° |
| 2026-05-04 04:27 | -33.52179 | 151.09859 | 5909 ft | 330 kts | 172° |
| 2026-05-04 04:28 | -33.54446 | 151.10295 | 5479 ft | 330 kts | 172° |
| 2026-05-04 04:28 | -33.56710 | 151.10730 | 5056 ft | 329 kts | 172° |
| 2026-05-04 04:28 | -33.58974 | 151.11166 | 4626 ft | 328 kts | 171° |
| 2026-05-04 04:28 | -33.61195 | 151.11595 | 4226 ft | 326 kts | 171° |
| 2026-05-04 04:29 | -33.63436 | 151.12035 | 3780 ft | 325 kts | 171° |
| 2026-05-04 04:29 | -33.65666 | 151.12476 | 3361 ft | 324 kts | 171° |
| 2026-05-04 04:29 | -33.67757 | 151.12890 | 2945 ft | 322 kts | 171° |
| 2026-05-04 04:29 | -33.70017 | 151.13340 | 2520 ft | 319 kts | 173° |
| 2026-05-04 04:30 | -33.72198 | 151.13766 | 2121 ft | 314 kts | 173° |
| 2026-05-04 04:30 | -33.74316 | 151.14171 | 1999 ft | 302 kts | 170° |
| 2026-05-04 04:30 | -33.76326 | 151.14559 | 1995 ft | 286 kts | 170° |
| 2026-05-04 04:30 | -33.78254 | 151.14932 | 1985 ft | 275 kts | 170° |
| 2026-05-04 04:31 | -33.80092 | 151.15432 | 1976 ft | 269 kts | 154° |
| 2026-05-04 04:31 | -33.81777 | 151.16370 | 1985 ft | 269 kts | 165° |
| 2026-05-04 04:31 | -33.83626 | 151.16266 | 2004 ft | 271 kts | 201° |
| 2026-05-04 04:31 | -33.85110 | 151.14968 | 2006 ft | 269 kts | 236° |
| 2026-05-04 04:32 | -33.85746 | 151.12902 | 2009 ft | 264 kts | 271° |